sensor_id;sensor_type;location;lat;lon;timestamp;P1;durP1;ratioP1;P2;durP2;ratioP2
7683;SDS011;3884;48.616;12.872;2024-03-08T00:00:41;28.03;;;19.57;;
7683;SDS011;3884;48.616;12.872;2024-03-08T00:03:09;27.97;;;19.83;;
7683;SDS011;3884;48.616;12.872;2024-03-08T00:05:38;29.00;;;20.13;;
7683;SDS011;3884;48.616;12.872;2024-03-08T00:08:05;31.40;;;21.37;;
7683;SDS011;3884;48.616;12.872;2024-03-08T00:10:35;30.90;;;21.90;;
7683;SDS011;3884;48.616;12.872;2024-03-08T00:13:04;31.40;;;20.73;;
7683;SDS011;3884;48.616;12.872;2024-03-08T00:15:33;29.27;;;20.43;;
7683;SDS011;3884;48.616;12.872;2024-03-08T00:18:01;32.37;;;21.20;;
7683;SDS011;3884;48.616;12.872;2024-03-08T00:20:29;30.93;;;21.30;;
7683;SDS011;3884;48.616;12.872;2024-03-08T00:23:00;30.80;;;21.47;;
7683;SDS011;3884;48.616;12.872;2024-03-08T00:25:28;30.83;;;21.60;;
7683;SDS011;3884;48.616;12.872;2024-03-08T00:27:56;29.03;;;21.30;;
7683;SDS011;3884;48.616;12.872;2024-03-08T00:30:25;32.73;;;21.53;;
7683;SDS011;3884;48.616;12.872;2024-03-08T00:32:54;29.77;;;21.40;;
7683;SDS011;3884;48.616;12.872;2024-03-08T00:35:21;29.10;;;19.97;;
7683;SDS011;3884;48.616;12.872;2024-03-08T00:37:53;30.63;;;21.03;;
7683;SDS011;3884;48.616;12.872;2024-03-08T00:40:23;29.60;;;21.70;;
7683;SDS011;3884;48.616;12.872;2024-03-08T00:42:51;31.63;;;19.80;;
7683;SDS011;3884;48.616;12.872;2024-03-08T00:45:19;30.53;;;21.10;;
7683;SDS011;3884;48.616;12.872;2024-03-08T00:47:47;29.57;;;19.83;;
7683;SDS011;3884;48.616;12.872;2024-03-08T00:50:15;28.37;;;20.83;;
7683;SDS011;3884;48.616;12.872;2024-03-08T00:52:43;32.87;;;20.83;;
7683;SDS011;3884;48.616;12.872;2024-03-08T00:55:10;30.47;;;20.90;;
7683;SDS011;3884;48.616;12.872;2024-03-08T00:57:40;28.10;;;20.77;;
7683;SDS011;3884;48.616;12.872;2024-03-08T01:00:12;29.67;;;19.83;;
7683;SDS011;3884;48.616;12.872;2024-03-08T01:02:39;30.03;;;21.23;;
7683;SDS011;3884;48.616;12.872;2024-03-08T01:05:08;29.90;;;20.93;;
7683;SDS011;3884;48.616;12.872;2024-03-08T01:07:36;29.87;;;20.83;;
7683;SDS011;3884;48.616;12.872;2024-03-08T01:10:04;30.47;;;21.33;;
7683;SDS011;3884;48.616;12.872;2024-03-08T01:12:36;29.67;;;19.40;;
7683;SDS011;3884;48.616;12.872;2024-03-08T01:15:05;29.63;;;20.03;;
7683;SDS011;3884;48.616;12.872;2024-03-08T01:17:34;29.17;;;21.07;;
7683;SDS011;3884;48.616;12.872;2024-03-08T01:20:06;27.30;;;20.00;;
7683;SDS011;3884;48.616;12.872;2024-03-08T01:22:37;32.93;;;20.17;;
7683;SDS011;3884;48.616;12.872;2024-03-08T01:25:10;28.60;;;20.50;;
7683;SDS011;3884;48.616;12.872;2024-03-08T01:27:37;28.17;;;19.83;;
7683;SDS011;3884;48.616;12.872;2024-03-08T01:30:08;30.23;;;20.77;;
7683;SDS011;3884;48.616;12.872;2024-03-08T01:32:36;28.90;;;19.00;;
7683;SDS011;3884;48.616;12.872;2024-03-08T01:35:04;27.70;;;19.80;;
7683;SDS011;3884;48.616;12.872;2024-03-08T01:37:34;29.43;;;20.63;;
7683;SDS011;3884;48.616;12.872;2024-03-08T01:40:02;29.30;;;20.33;;
7683;SDS011;3884;48.616;12.872;2024-03-08T01:42:30;28.97;;;18.80;;
7683;SDS011;3884;48.616;12.872;2024-03-08T01:45:03;28.57;;;20.23;;
7683;SDS011;3884;48.616;12.872;2024-03-08T01:47:37;30.83;;;21.30;;
7683;SDS011;3884;48.616;12.872;2024-03-08T01:50:07;30.60;;;20.37;;
7683;SDS011;3884;48.616;12.872;2024-03-08T01:52:36;29.90;;;20.83;;
7683;SDS011;3884;48.616;12.872;2024-03-08T01:55:05;27.77;;;19.83;;
7683;SDS011;3884;48.616;12.872;2024-03-08T01:57:41;29.37;;;20.07;;
7683;SDS011;3884;48.616;12.872;2024-03-08T02:00:10;29.57;;;20.60;;
7683;SDS011;3884;48.616;12.872;2024-03-08T02:02:40;30.03;;;21.00;;
7683;SDS011;3884;48.616;12.872;2024-03-08T02:05:09;29.70;;;20.73;;
7683;SDS011;3884;48.616;12.872;2024-03-08T02:07:40;27.57;;;21.23;;
7683;SDS011;3884;48.616;12.872;2024-03-08T02:10:09;31.03;;;21.40;;
7683;SDS011;3884;48.616;12.872;2024-03-08T02:12:37;28.73;;;20.20;;
7683;SDS011;3884;48.616;12.872;2024-03-08T02:15:04;30.37;;;20.87;;
7683;SDS011;3884;48.616;12.872;2024-03-08T02:17:33;34.13;;;21.60;;
7683;SDS011;3884;48.616;12.872;2024-03-08T02:20:04;31.47;;;21.17;;
7683;SDS011;3884;48.616;12.872;2024-03-08T02:22:37;30.83;;;21.47;;
7683;SDS011;3884;48.616;12.872;2024-03-08T02:25:05;30.77;;;20.73;;
7683;SDS011;3884;48.616;12.872;2024-03-08T02:27:34;32.20;;;21.77;;
7683;SDS011;3884;48.616;12.872;2024-03-08T02:30:01;32.57;;;21.33;;
7683;SDS011;3884;48.616;12.872;2024-03-08T02:32:30;35.10;;;22.73;;
7683;SDS011;3884;48.616;12.872;2024-03-08T02:34:58;30.83;;;21.33;;
7683;SDS011;3884;48.616;12.872;2024-03-08T02:37:26;32.50;;;22.37;;
7683;SDS011;3884;48.616;12.872;2024-03-08T02:40:02;35.37;;;21.90;;
7683;SDS011;3884;48.616;12.872;2024-03-08T02:42:32;31.53;;;21.70;;
7683;SDS011;3884;48.616;12.872;2024-03-08T02:44:59;32.30;;;20.87;;
7683;SDS011;3884;48.616;12.872;2024-03-08T02:47:42;36.27;;;23.20;;
7683;SDS011;3884;48.616;12.872;2024-03-08T02:50:17;34.20;;;20.87;;
7683;SDS011;3884;48.616;12.872;2024-03-08T02:52:47;34.00;;;22.03;;
7683;SDS011;3884;48.616;12.872;2024-03-08T02:55:19;35.93;;;23.30;;
7683;SDS011;3884;48.616;12.872;2024-03-08T02:57:52;32.87;;;22.63;;
7683;SDS011;3884;48.616;12.872;2024-03-08T03:00:34;35.20;;;22.40;;
7683;SDS011;3884;48.616;12.872;2024-03-08T03:03:09;35.63;;;23.53;;
7683;SDS011;3884;48.616;12.872;2024-03-08T03:05:53;37.17;;;23.90;;
7683;SDS011;3884;48.616;12.872;2024-03-08T03:08:26;36.93;;;24.53;;
7683;SDS011;3884;48.616;12.872;2024-03-08T03:11:13;34.33;;;22.83;;
7683;SDS011;3884;48.616;12.872;2024-03-08T03:13:42;35.30;;;23.27;;
7683;SDS011;3884;48.616;12.872;2024-03-08T03:16:16;33.07;;;23.13;;
7683;SDS011;3884;48.616;12.872;2024-03-08T03:18:57;37.30;;;24.57;;
7683;SDS011;3884;48.616;12.872;2024-03-08T03:21:28;35.00;;;23.33;;
7683;SDS011;3884;48.616;12.872;2024-03-08T03:23:56;37.87;;;23.67;;
7683;SDS011;3884;48.616;12.872;2024-03-08T03:26:30;36.63;;;23.80;;
7683;SDS011;3884;48.616;12.872;2024-03-08T03:28:58;32.50;;;22.60;;
7683;SDS011;3884;48.616;12.872;2024-03-08T03:31:25;35.23;;;23.73;;
7683;SDS011;3884;48.616;12.872;2024-03-08T03:33:53;35.77;;;24.13;;
7683;SDS011;3884;48.616;12.872;2024-03-08T03:36:26;36.47;;;24.67;;
7683;SDS011;3884;48.616;12.872;2024-03-08T03:38:55;36.23;;;23.90;;
7683;SDS011;3884;48.616;12.872;2024-03-08T03:41:33;38.03;;;23.70;;
7683;SDS011;3884;48.616;12.872;2024-03-08T03:44:01;39.97;;;26.57;;
7683;SDS011;3884;48.616;12.872;2024-03-08T03:46:30;39.43;;;25.83;;
7683;SDS011;3884;48.616;12.872;2024-03-08T03:48:59;36.53;;;24.20;;
7683;SDS011;3884;48.616;12.872;2024-03-08T03:51:26;41.73;;;26.00;;
7683;SDS011;3884;48.616;12.872;2024-03-08T03:53:54;38.40;;;26.80;;
7683;SDS011;3884;48.616;12.872;2024-03-08T03:56:24;39.93;;;25.87;;
7683;SDS011;3884;48.616;12.872;2024-03-08T03:58:55;38.83;;;25.93;;
7683;SDS011;3884;48.616;12.872;2024-03-08T04:01:25;41.10;;;25.87;;
7683;SDS011;3884;48.616;12.872;2024-03-08T04:03:54;42.67;;;26.40;;
7683;SDS011;3884;48.616;12.872;2024-03-08T04:06:22;41.33;;;26.87;;
7683;SDS011;3884;48.616;12.872;2024-03-08T04:08:49;36.50;;;24.60;;
7683;SDS011;3884;48.616;12.872;2024-03-08T04:11:17;36.90;;;25.03;;
7683;SDS011;3884;48.616;12.872;2024-03-08T04:13:44;39.10;;;25.07;;
7683;SDS011;3884;48.616;12.872;2024-03-08T04:16:14;34.90;;;23.57;;
7683;SDS011;3884;48.616;12.872;2024-03-08T04:18:43;37.30;;;24.60;;
7683;SDS011;3884;48.616;12.872;2024-03-08T04:21:10;37.90;;;23.83;;
7683;SDS011;3884;48.616;12.872;2024-03-08T04:23:38;38.97;;;24.27;;
7683;SDS011;3884;48.616;12.872;2024-03-08T04:26:11;33.70;;;24.00;;
7683;SDS011;3884;48.616;12.872;2024-03-08T04:28:40;33.67;;;22.80;;
7683;SDS011;3884;48.616;12.872;2024-03-08T04:31:08;35.20;;;24.07;;
7683;SDS011;3884;48.616;12.872;2024-03-08T04:33:38;32.83;;;22.73;;
7683;SDS011;3884;48.616;12.872;2024-03-08T04:36:05;38.15;;;25.40;;
7683;SDS011;3884;48.616;12.872;2024-03-08T04:38:33;35.57;;;22.37;;
7683;SDS011;3884;48.616;12.872;2024-03-08T04:41:01;34.33;;;21.90;;
7683;SDS011;3884;48.616;12.872;2024-03-08T04:43:30;36.00;;;22.30;;
7683;SDS011;3884;48.616;12.872;2024-03-08T04:45:59;35.07;;;22.57;;
7683;SDS011;3884;48.616;12.872;2024-03-08T04:48:28;34.17;;;22.47;;
7683;SDS011;3884;48.616;12.872;2024-03-08T04:51:00;34.57;;;23.57;;
7683;SDS011;3884;48.616;12.872;2024-03-08T04:53:30;36.13;;;23.67;;
7683;SDS011;3884;48.616;12.872;2024-03-08T04:55:59;34.13;;;22.63;;
7683;SDS011;3884;48.616;12.872;2024-03-08T04:58:31;36.03;;;22.53;;
7683;SDS011;3884;48.616;12.872;2024-03-08T05:00:59;38.53;;;23.37;;
7683;SDS011;3884;48.616;12.872;2024-03-08T05:03:27;32.90;;;22.33;;
7683;SDS011;3884;48.616;12.872;2024-03-08T05:05:55;35.80;;;23.00;;
7683;SDS011;3884;48.616;12.872;2024-03-08T05:08:27;36.10;;;23.53;;
7683;SDS011;3884;48.616;12.872;2024-03-08T05:10:57;39.93;;;24.70;;
7683;SDS011;3884;48.616;12.872;2024-03-08T05:13:28;38.57;;;24.07;;
7683;SDS011;3884;48.616;12.872;2024-03-08T05:15:59;38.13;;;24.10;;
7683;SDS011;3884;48.616;12.872;2024-03-08T05:18:26;40.77;;;25.13;;
7683;SDS011;3884;48.616;12.872;2024-03-08T05:20:57;41.70;;;25.37;;
7683;SDS011;3884;48.616;12.872;2024-03-08T05:23:31;39.10;;;24.30;;
7683;SDS011;3884;48.616;12.872;2024-03-08T05:25:59;38.33;;;24.70;;
7683;SDS011;3884;48.616;12.872;2024-03-08T05:28:30;40.37;;;24.73;;
7683;SDS011;3884;48.616;12.872;2024-03-08T05:30:58;36.53;;;23.63;;
7683;SDS011;3884;48.616;12.872;2024-03-08T05:33:38;37.40;;;23.47;;
7683;SDS011;3884;48.616;12.872;2024-03-08T05:36:08;41.10;;;24.80;;
7683;SDS011;3884;48.616;12.872;2024-03-08T05:38:42;42.10;;;24.93;;
7683;SDS011;3884;48.616;12.872;2024-03-08T05:41:10;37.17;;;23.97;;
7683;SDS011;3884;48.616;12.872;2024-03-08T05:43:46;39.63;;;25.13;;
7683;SDS011;3884;48.616;12.872;2024-03-08T05:46:15;45.67;;;26.80;;
7683;SDS011;3884;48.616;12.872;2024-03-08T05:48:56;40.47;;;25.40;;
7683;SDS011;3884;48.616;12.872;2024-03-08T05:51:31;41.37;;;27.17;;
7683;SDS011;3884;48.616;12.872;2024-03-08T05:54:06;42.77;;;27.10;;
7683;SDS011;3884;48.616;12.872;2024-03-08T05:56:40;54.73;;;33.00;;
7683;SDS011;3884;48.616;12.872;2024-03-08T05:59:09;50.90;;;30.07;;
7683;SDS011;3884;48.616;12.872;2024-03-08T06:01:41;50.97;;;29.20;;
7683;SDS011;3884;48.616;12.872;2024-03-08T06:04:12;49.37;;;30.17;;
7683;SDS011;3884;48.616;12.872;2024-03-08T06:06:43;49.50;;;29.27;;
7683;SDS011;3884;48.616;12.872;2024-03-08T06:11:57;54.27;;;31.30;;
7683;SDS011;3884;48.616;12.872;2024-03-08T06:14:27;60.10;;;33.03;;
7683;SDS011;3884;48.616;12.872;2024-03-08T06:16:54;54.27;;;32.40;;
7683;SDS011;3884;48.616;12.872;2024-03-08T06:19:25;55.60;;;32.67;;
7683;SDS011;3884;48.616;12.872;2024-03-08T06:21:58;58.40;;;32.03;;
7683;SDS011;3884;48.616;12.872;2024-03-08T06:27:38;59.97;;;35.30;;
7683;SDS011;3884;48.616;12.872;2024-03-08T06:30:22;66.23;;;36.70;;
7683;SDS011;3884;48.616;12.872;2024-03-08T06:32:56;62.33;;;35.43;;
7683;SDS011;3884;48.616;12.872;2024-03-08T06:35:32;65.93;;;37.40;;
7683;SDS011;3884;48.616;12.872;2024-03-08T06:38:03;58.60;;;35.53;;
7683;SDS011;3884;48.616;12.872;2024-03-08T06:40:38;65.67;;;37.87;;
7683;SDS011;3884;48.616;12.872;2024-03-08T06:43:07;63.50;;;37.00;;
7683;SDS011;3884;48.616;12.872;2024-03-08T06:45:36;65.17;;;36.57;;
7683;SDS011;3884;48.616;12.872;2024-03-08T06:48:08;62.43;;;36.30;;
7683;SDS011;3884;48.616;12.872;2024-03-08T06:50:51;65.83;;;36.17;;
7683;SDS011;3884;48.616;12.872;2024-03-08T06:53:39;63.57;;;36.87;;
7683;SDS011;3884;48.616;12.872;2024-03-08T06:56:19;63.53;;;35.77;;
7683;SDS011;3884;48.616;12.872;2024-03-08T06:58:53;60.47;;;35.73;;
7683;SDS011;3884;48.616;12.872;2024-03-08T07:01:25;63.50;;;35.67;;
7683;SDS011;3884;48.616;12.872;2024-03-08T07:03:53;59.20;;;35.07;;
7683;SDS011;3884;48.616;12.872;2024-03-08T07:06:24;59.37;;;35.33;;
7683;SDS011;3884;48.616;12.872;2024-03-08T07:08:51;59.30;;;35.57;;
7683;SDS011;3884;48.616;12.872;2024-03-08T07:11:21;55.10;;;32.37;;
7683;SDS011;3884;48.616;12.872;2024-03-08T07:13:58;51.93;;;32.97;;
7683;SDS011;3884;48.616;12.872;2024-03-08T07:16:38;58.23;;;33.37;;
7683;SDS011;3884;48.616;12.872;2024-03-08T07:19:11;50.50;;;32.13;;
7683;SDS011;3884;48.616;12.872;2024-03-08T07:21:38;49.07;;;29.97;;
7683;SDS011;3884;48.616;12.872;2024-03-08T07:24:10;50.83;;;30.40;;
7683;SDS011;3884;48.616;12.872;2024-03-08T07:27:03;52.53;;;33.77;;
7683;SDS011;3884;48.616;12.872;2024-03-08T07:29:42;48.93;;;30.60;;
7683;SDS011;3884;48.616;12.872;2024-03-08T07:32:14;48.70;;;30.37;;
7683;SDS011;3884;48.616;12.872;2024-03-08T07:34:47;48.23;;;28.60;;
7683;SDS011;3884;48.616;12.872;2024-03-08T07:37:19;45.80;;;29.47;;
7683;SDS011;3884;48.616;12.872;2024-03-08T07:39:51;47.53;;;28.53;;
7683;SDS011;3884;48.616;12.872;2024-03-08T07:42:32;47.13;;;29.13;;
7683;SDS011;3884;48.616;12.872;2024-03-08T07:45:09;49.03;;;29.43;;
7683;SDS011;3884;48.616;12.872;2024-03-08T07:47:38;45.17;;;27.43;;
7683;SDS011;3884;48.616;12.872;2024-03-08T07:50:10;46.20;;;28.50;;
7683;SDS011;3884;48.616;12.872;2024-03-08T07:52:41;41.67;;;28.13;;
7683;SDS011;3884;48.616;12.872;2024-03-08T07:55:14;42.13;;;26.93;;
7683;SDS011;3884;48.616;12.872;2024-03-08T07:57:51;44.63;;;27.80;;
7683;SDS011;3884;48.616;12.872;2024-03-08T08:55:42;31.87;;;22.20;;
7683;SDS011;3884;48.616;12.872;2024-03-08T08:58:16;30.70;;;20.67;;
7683;SDS011;3884;48.616;12.872;2024-03-08T09:01:00;35.10;;;22.90;;
7683;SDS011;3884;48.616;12.872;2024-03-08T09:03:45;31.00;;;20.97;;
7683;SDS011;3884;48.616;12.872;2024-03-08T09:06:45;29.97;;;20.63;;
7683;SDS011;3884;48.616;12.872;2024-03-08T09:09:14;30.40;;;21.87;;
7683;SDS011;3884;48.616;12.872;2024-03-08T09:15:02;27.83;;;19.83;;
7683;SDS011;3884;48.616;12.872;2024-03-08T09:17:39;27.20;;;19.57;;
7683;SDS011;3884;48.616;12.872;2024-03-08T09:20:31;30.20;;;21.30;;
7683;SDS011;3884;48.616;12.872;2024-03-08T09:23:48;27.63;;;20.23;;
7683;SDS011;3884;48.616;12.872;2024-03-08T09:32:03;26.73;;;20.93;;
7683;SDS011;3884;48.616;12.872;2024-03-08T09:34:46;27.67;;;19.53;;
7683;SDS011;3884;48.616;12.872;2024-03-08T09:37:54;25.20;;;17.77;;
7683;SDS011;3884;48.616;12.872;2024-03-08T09:50:43;23.07;;;17.07;;
7683;SDS011;3884;48.616;12.872;2024-03-08T09:53:28;24.33;;;16.60;;
7683;SDS011;3884;48.616;12.872;2024-03-08T09:55:59;22.03;;;15.53;;
7683;SDS011;3884;48.616;12.872;2024-03-08T09:58:29;23.23;;;16.73;;
7683;SDS011;3884;48.616;12.872;2024-03-08T10:01:20;21.10;;;15.63;;
7683;SDS011;3884;48.616;12.872;2024-03-08T10:04:02;18.70;;;14.27;;
7683;SDS011;3884;48.616;12.872;2024-03-08T10:14:25;19.70;;;14.53;;
7683;SDS011;3884;48.616;12.872;2024-03-08T10:17:17;22.77;;;14.00;;
7683;SDS011;3884;48.616;12.872;2024-03-08T10:20:25;20.13;;;15.20;;
7683;SDS011;3884;48.616;12.872;2024-03-08T10:23:01;20.77;;;14.97;;
7683;SDS011;3884;48.616;12.872;2024-03-08T10:25:31;17.90;;;14.03;;
7683;SDS011;3884;48.616;12.872;2024-03-08T10:28:14;20.90;;;15.70;;
7683;SDS011;3884;48.616;12.872;2024-03-08T10:30:48;19.90;;;14.53;;
7683;SDS011;3884;48.616;12.872;2024-03-08T10:33:17;20.13;;;15.13;;
7683;SDS011;3884;48.616;12.872;2024-03-08T10:35:45;20.10;;;15.87;;
7683;SDS011;3884;48.616;12.872;2024-03-08T10:38:12;21.17;;;15.63;;
7683;SDS011;3884;48.616;12.872;2024-03-08T10:41:00;20.17;;;15.10;;
7683;SDS011;3884;48.616;12.872;2024-03-08T10:43:40;22.70;;;15.30;;
7683;SDS011;3884;48.616;12.872;2024-03-08T10:46:29;20.00;;;14.73;;
7683;SDS011;3884;48.616;12.872;2024-03-08T10:49:00;21.10;;;14.93;;
7683;SDS011;3884;48.616;12.872;2024-03-08T10:51:32;19.07;;;13.90;;
7683;SDS011;3884;48.616;12.872;2024-03-08T10:54:00;17.67;;;13.37;;
7683;SDS011;3884;48.616;12.872;2024-03-08T10:56:29;15.60;;;12.57;;
7683;SDS011;3884;48.616;12.872;2024-03-08T10:58:56;16.47;;;11.67;;
7683;SDS011;3884;48.616;12.872;2024-03-08T11:01:23;15.43;;;11.73;;
7683;SDS011;3884;48.616;12.872;2024-03-08T11:03:52;15.87;;;11.47;;
7683;SDS011;3884;48.616;12.872;2024-03-08T11:06:29;14.27;;;11.33;;
7683;SDS011;3884;48.616;12.872;2024-03-08T11:08:57;13.63;;;10.97;;
7683;SDS011;3884;48.616;12.872;2024-03-08T11:11:26;15.40;;;11.20;;
7683;SDS011;3884;48.616;12.872;2024-03-08T11:13:55;13.53;;;10.17;;
7683;SDS011;3884;48.616;12.872;2024-03-08T11:16:38;14.57;;;9.37;;
7683;SDS011;3884;48.616;12.872;2024-03-08T11:19:26;11.83;;;9.20;;
7683;SDS011;3884;48.616;12.872;2024-03-08T11:21:57;11.07;;;8.63;;
7683;SDS011;3884;48.616;12.872;2024-03-08T11:24:24;14.03;;;10.50;;
7683;SDS011;3884;48.616;12.872;2024-03-08T11:26:54;13.13;;;9.90;;
7683;SDS011;3884;48.616;12.872;2024-03-08T11:29:32;13.67;;;10.57;;
7683;SDS011;3884;48.616;12.872;2024-03-08T11:32:09;12.70;;;9.60;;
7683;SDS011;3884;48.616;12.872;2024-03-08T11:34:44;10.97;;;9.27;;
7683;SDS011;3884;48.616;12.872;2024-03-08T11:37:13;13.03;;;10.20;;
7683;SDS011;3884;48.616;12.872;2024-03-08T11:39:45;12.77;;;9.50;;
7683;SDS011;3884;48.616;12.872;2024-03-08T11:42:15;12.83;;;10.27;;
7683;SDS011;3884;48.616;12.872;2024-03-08T11:44:42;12.80;;;9.70;;
7683;SDS011;3884;48.616;12.872;2024-03-08T11:47:10;11.40;;;9.03;;
7683;SDS011;3884;48.616;12.872;2024-03-08T11:49:38;12.27;;;9.20;;
7683;SDS011;3884;48.616;12.872;2024-03-08T11:52:12;10.97;;;8.67;;
7683;SDS011;3884;48.616;12.872;2024-03-08T11:54:39;12.23;;;9.70;;
7683;SDS011;3884;48.616;12.872;2024-03-08T11:57:06;11.50;;;9.47;;
7683;SDS011;3884;48.616;12.872;2024-03-08T11:59:35;12.07;;;8.77;;
7683;SDS011;3884;48.616;12.872;2024-03-08T12:02:02;12.80;;;10.20;;
7683;SDS011;3884;48.616;12.872;2024-03-08T12:04:32;12.10;;;9.23;;
7683;SDS011;3884;48.616;12.872;2024-03-08T12:07:01;12.37;;;9.93;;
7683;SDS011;3884;48.616;12.872;2024-03-08T12:09:37;13.07;;;9.33;;
7683;SDS011;3884;48.616;12.872;2024-03-08T12:12:06;10.47;;;8.40;;
7683;SDS011;3884;48.616;12.872;2024-03-08T12:14:46;13.77;;;9.17;;
7683;SDS011;3884;48.616;12.872;2024-03-08T12:17:14;13.07;;;9.40;;
7683;SDS011;3884;48.616;12.872;2024-03-08T12:19:45;11.77;;;9.30;;
7683;SDS011;3884;48.616;12.872;2024-03-08T12:22:14;12.00;;;8.90;;
7683;SDS011;3884;48.616;12.872;2024-03-08T12:24:42;12.70;;;9.67;;
7683;SDS011;3884;48.616;12.872;2024-03-08T12:27:18;12.87;;;9.93;;
7683;SDS011;3884;48.616;12.872;2024-03-08T12:29:45;12.90;;;9.17;;
7683;SDS011;3884;48.616;12.872;2024-03-08T12:32:12;11.43;;;9.17;;
7683;SDS011;3884;48.616;12.872;2024-03-08T12:34:40;9.87;;;8.60;;
7683;SDS011;3884;48.616;12.872;2024-03-08T13:10:49;7.40;;;6.30;;
7683;SDS011;3884;48.616;12.872;2024-03-08T13:13:18;9.57;;;6.77;;
7683;SDS011;3884;48.616;12.872;2024-03-08T13:15:45;10.30;;;6.90;;
7683;SDS011;3884;48.616;12.872;2024-03-08T13:18:21;13.30;;;6.70;;
7683;SDS011;3884;48.616;12.872;2024-03-08T13:20:49;7.43;;;5.90;;
7683;SDS011;3884;48.616;12.872;2024-03-08T13:23:17;8.40;;;6.47;;
7683;SDS011;3884;48.616;12.872;2024-03-08T13:25:54;9.27;;;6.77;;
7683;SDS011;3884;48.616;12.872;2024-03-08T13:32:16;7.67;;;6.23;;
7683;SDS011;3884;48.616;12.872;2024-03-08T13:38:07;7.30;;;5.57;;
7683;SDS011;3884;48.616;12.872;2024-03-08T13:40:40;7.40;;;5.93;;
7683;SDS011;3884;48.616;12.872;2024-03-08T13:43:28;6.70;;;5.90;;
7683;SDS011;3884;48.616;12.872;2024-03-08T13:49:08;7.57;;;5.87;;
7683;SDS011;3884;48.616;12.872;2024-03-08T13:51:36;7.00;;;5.50;;
7683;SDS011;3884;48.616;12.872;2024-03-08T13:54:03;6.33;;;5.47;;
7683;SDS011;3884;48.616;12.872;2024-03-08T13:56:32;6.10;;;5.50;;
7683;SDS011;3884;48.616;12.872;2024-03-08T13:59:01;6.23;;;5.47;;
7683;SDS011;3884;48.616;12.872;2024-03-08T14:01:28;5.70;;;5.10;;
7683;SDS011;3884;48.616;12.872;2024-03-08T14:03:55;7.37;;;5.53;;
7683;SDS011;3884;48.616;12.872;2024-03-08T14:06:22;6.70;;;5.23;;
7683;SDS011;3884;48.616;12.872;2024-03-08T14:08:50;6.50;;;5.30;;
7683;SDS011;3884;48.616;12.872;2024-03-08T14:11:18;9.20;;;5.23;;
7683;SDS011;3884;48.616;12.872;2024-03-08T14:13:45;6.30;;;4.77;;
7683;SDS011;3884;48.616;12.872;2024-03-08T14:18:57;7.20;;;4.83;;
7683;SDS011;3884;48.616;12.872;2024-03-08T14:21:28;6.70;;;5.73;;
7683;SDS011;3884;48.616;12.872;2024-03-08T14:23:55;5.90;;;5.27;;
7683;SDS011;3884;48.616;12.872;2024-03-08T14:26:22;6.17;;;5.30;;
7683;SDS011;3884;48.616;12.872;2024-03-08T14:28:49;6.43;;;4.93;;
7683;SDS011;3884;48.616;12.872;2024-03-08T14:31:19;5.60;;;4.13;;
7683;SDS011;3884;48.616;12.872;2024-03-08T14:36:47;7.30;;;4.37;;
7683;SDS011;3884;48.616;12.872;2024-03-08T14:39:30;5.07;;;4.20;;
7683;SDS011;3884;48.616;12.872;2024-03-08T14:41:58;6.07;;;4.77;;
7683;SDS011;3884;48.616;12.872;2024-03-08T14:44:28;5.50;;;4.47;;
7683;SDS011;3884;48.616;12.872;2024-03-08T14:46:57;6.57;;;5.03;;
7683;SDS011;3884;48.616;12.872;2024-03-08T15:46:15;8.17;;;5.40;;
7683;SDS011;3884;48.616;12.872;2024-03-08T15:48:42;6.13;;;5.40;;
7683;SDS011;3884;48.616;12.872;2024-03-08T15:51:09;8.07;;;5.30;;
7683;SDS011;3884;48.616;12.872;2024-03-08T15:53:36;7.13;;;5.57;;
7683;SDS011;3884;48.616;12.872;2024-03-08T15:56:04;6.53;;;5.30;;
7683;SDS011;3884;48.616;12.872;2024-03-08T15:58:32;6.37;;;5.10;;
7683;SDS011;3884;48.616;12.872;2024-03-08T16:01:00;6.30;;;5.17;;
7683;SDS011;3884;48.616;12.872;2024-03-08T16:03:30;6.43;;;5.63;;
7683;SDS011;3884;48.616;12.872;2024-03-08T16:05:57;7.10;;;5.53;;
7683;SDS011;3884;48.616;12.872;2024-03-08T16:08:25;6.27;;;5.27;;
7683;SDS011;3884;48.616;12.872;2024-03-08T16:10:53;7.90;;;5.63;;
7683;SDS011;3884;48.616;12.872;2024-03-08T16:13:21;7.67;;;5.27;;
7683;SDS011;3884;48.616;12.872;2024-03-08T16:15:50;7.03;;;5.10;;
7683;SDS011;3884;48.616;12.872;2024-03-08T16:18:18;6.73;;;5.10;;
7683;SDS011;3884;48.616;12.872;2024-03-08T16:20:48;6.80;;;5.40;;
7683;SDS011;3884;48.616;12.872;2024-03-08T16:23:16;6.53;;;5.33;;
7683;SDS011;3884;48.616;12.872;2024-03-08T16:25:43;7.87;;;5.10;;
7683;SDS011;3884;48.616;12.872;2024-03-08T16:28:10;7.07;;;5.37;;
7683;SDS011;3884;48.616;12.872;2024-03-08T16:30:38;6.97;;;5.57;;
7683;SDS011;3884;48.616;12.872;2024-03-08T16:33:07;7.43;;;5.30;;
7683;SDS011;3884;48.616;12.872;2024-03-08T16:35:34;7.17;;;5.47;;
7683;SDS011;3884;48.616;12.872;2024-03-08T16:38:05;9.20;;;6.57;;
7683;SDS011;3884;48.616;12.872;2024-03-08T16:40:33;8.00;;;6.30;;
7683;SDS011;3884;48.616;12.872;2024-03-08T16:43:01;8.73;;;5.93;;
7683;SDS011;3884;48.616;12.872;2024-03-08T16:45:28;7.63;;;5.63;;
7683;SDS011;3884;48.616;12.872;2024-03-08T16:47:55;7.60;;;6.03;;
7683;SDS011;3884;48.616;12.872;2024-03-08T16:50:22;7.00;;;5.90;;
7683;SDS011;3884;48.616;12.872;2024-03-08T16:52:49;6.13;;;5.40;;
7683;SDS011;3884;48.616;12.872;2024-03-08T16:55:18;7.13;;;5.80;;
7683;SDS011;3884;48.616;12.872;2024-03-08T16:57:45;6.27;;;5.53;;
7683;SDS011;3884;48.616;12.872;2024-03-08T17:00:14;7.70;;;5.93;;
7683;SDS011;3884;48.616;12.872;2024-03-08T17:02:43;8.37;;;6.20;;
7683;SDS011;3884;48.616;12.872;2024-03-08T17:05:12;8.60;;;6.87;;
7683;SDS011;3884;48.616;12.872;2024-03-08T17:07:41;11.30;;;9.03;;
7683;SDS011;3884;48.616;12.872;2024-03-08T17:10:09;9.83;;;7.83;;
7683;SDS011;3884;48.616;12.872;2024-03-08T17:12:42;11.53;;;9.27;;
7683;SDS011;3884;48.616;12.872;2024-03-08T17:15:09;13.23;;;10.23;;
7683;SDS011;3884;48.616;12.872;2024-03-08T17:17:37;13.23;;;10.50;;
7683;SDS011;3884;48.616;12.872;2024-03-08T17:20:07;14.13;;;10.70;;
7683;SDS011;3884;48.616;12.872;2024-03-08T17:22:39;14.43;;;11.00;;
7683;SDS011;3884;48.616;12.872;2024-03-08T17:25:11;14.43;;;10.73;;
7683;SDS011;3884;48.616;12.872;2024-03-08T17:27:43;15.87;;;11.73;;
7683;SDS011;3884;48.616;12.872;2024-03-08T17:30:14;18.63;;;11.37;;
7683;SDS011;3884;48.616;12.872;2024-03-08T17:32:47;15.43;;;12.43;;
7683;SDS011;3884;48.616;12.872;2024-03-08T17:35:15;18.67;;;13.47;;
7683;SDS011;3884;48.616;12.872;2024-03-08T17:37:44;15.83;;;11.77;;
7683;SDS011;3884;48.616;12.872;2024-03-08T17:40:12;17.37;;;13.00;;
7683;SDS011;3884;48.616;12.872;2024-03-08T17:42:47;16.03;;;12.53;;
7683;SDS011;3884;48.616;12.872;2024-03-08T17:45:14;17.67;;;12.33;;
7683;SDS011;3884;48.616;12.872;2024-03-08T17:47:43;16.67;;;11.77;;
7683;SDS011;3884;48.616;12.872;2024-03-08T17:50:10;16.87;;;12.13;;
7683;SDS011;3884;48.616;12.872;2024-03-08T17:52:40;19.37;;;11.70;;
7683;SDS011;3884;48.616;12.872;2024-03-08T17:55:09;17.33;;;12.30;;
7683;SDS011;3884;48.616;12.872;2024-03-08T17:57:39;17.93;;;12.63;;
7683;SDS011;3884;48.616;12.872;2024-03-08T18:00:09;18.43;;;13.17;;
7683;SDS011;3884;48.616;12.872;2024-03-08T18:02:43;16.53;;;12.37;;
7683;SDS011;3884;48.616;12.872;2024-03-08T18:05:13;16.57;;;12.23;;
7683;SDS011;3884;48.616;12.872;2024-03-08T18:07:40;16.57;;;12.10;;
7683;SDS011;3884;48.616;12.872;2024-03-08T18:10:09;17.70;;;13.03;;
7683;SDS011;3884;48.616;12.872;2024-03-08T18:12:45;15.97;;;12.47;;
7683;SDS011;3884;48.616;12.872;2024-03-08T18:15:15;17.27;;;12.40;;
7683;SDS011;3884;48.616;12.872;2024-03-08T18:17:48;16.57;;;12.30;;
7683;SDS011;3884;48.616;12.872;2024-03-08T18:20:17;15.73;;;12.17;;